createdAt,value
2019-04-26T00:00:53.307Z,0.00
2019-04-26T00:01:53.395Z,0.00
2019-04-26T00:02:53.597Z,0.00
2019-04-26T00:03:53.832Z,0.00
2019-04-26T00:04:53.978Z,0.00
2019-04-26T00:05:54.179Z,0.00
2019-04-26T00:06:54.370Z,0.00
2019-04-26T00:07:54.587Z,0.00
2019-04-26T00:08:54.801Z,0.00
2019-04-26T00:09:54.991Z,0.00
2019-04-26T00:10:55.211Z,0.00
2019-04-26T00:11:55.425Z,0.00
2019-04-26T00:12:55.612Z,0.00
2019-04-26T00:13:56.312Z,0.00
2019-04-26T00:14:56.016Z,0.00
2019-04-26T00:15:56.169Z,0.00
2019-04-26T00:16:57.301Z,0.00
2019-04-26T00:17:56.526Z,0.00
2019-04-26T00:18:56.688Z,0.00
2019-04-26T00:19:56.888Z,0.00
2019-04-26T00:20:57.319Z,0.00
2019-04-26T00:21:57.231Z,0.00
2019-04-26T00:22:57.443Z,0.00
2019-04-26T00:23:57.599Z,0.00
2019-04-26T00:24:57.816Z,0.00
2019-04-26T00:25:58.001Z,0.00
2019-04-26T00:26:58.169Z,0.00
2019-04-26T00:27:58.383Z,0.00
2019-04-26T00:28:58.543Z,0.00
2019-04-26T00:29:58.720Z,0.00
2019-04-26T00:30:58.869Z,0.00
2019-04-26T00:31:59.017Z,0.00
2019-04-26T00:32:59.281Z,0.00
2019-04-26T00:33:59.409Z,0.00
2019-04-26T00:34:59.544Z,0.00
2019-04-26T00:35:59.702Z,0.00
2019-04-26T00:36:59.864Z,0.00
2019-04-26T00:37:59.993Z,0.00
2019-04-26T00:39:00.142Z,0.00
2019-04-26T00:40:00.317Z,0.00
2019-04-26T00:41:00.462Z,0.00
2019-04-26T00:42:00.603Z,0.00
2019-04-26T00:43:00.709Z,0.00
2019-04-26T00:44:00.981Z,0.00
2019-04-26T00:45:01.121Z,0.00
2019-04-26T00:46:01.267Z,0.00
2019-04-26T00:47:01.389Z,0.00
2019-04-26T00:48:01.521Z,0.00
2019-04-26T00:49:01.669Z,0.00
2019-04-26T00:50:01.800Z,0.00
2019-04-26T00:51:01.934Z,0.00
2019-04-26T00:52:02.092Z,0.00
2019-04-26T00:53:02.207Z,0.00
2019-04-26T00:54:03.319Z,0.00
2019-04-26T00:55:02.577Z,0.00
2019-04-26T00:56:02.728Z,0.00
2019-04-26T00:57:02.898Z,0.00
2019-04-26T00:58:03.054Z,0.00
2019-04-26T00:59:03.251Z,0.00
2019-04-26T01:00:03.433Z,0.00
2019-04-26T01:01:03.616Z,0.00
2019-04-26T01:02:03.833Z,0.00
2019-04-26T01:03:04.059Z,0.00
2019-04-26T01:04:04.221Z,0.00
2019-04-26T01:05:04.432Z,0.00
2019-04-26T01:06:04.840Z,0.00
2019-04-26T01:07:05.312Z,0.00
2019-04-26T01:08:05.009Z,0.00
2019-04-26T01:09:05.812Z,0.00
2019-04-26T01:10:05.379Z,0.00
2019-04-26T01:11:05.577Z,0.00
2019-04-26T01:12:06.314Z,0.00
2019-04-26T01:13:05.979Z,0.00
2019-04-26T01:14:06.146Z,0.00
2019-04-26T01:15:06.817Z,0.00
2019-04-26T01:16:06.449Z,0.00
2019-04-26T01:17:06.604Z,0.00
2019-04-26T01:18:06.828Z,0.00
2019-04-26T01:19:06.976Z,0.00
2019-04-26T01:20:07.110Z,0.00
2019-04-26T01:21:07.824Z,0.00
2019-04-26T01:22:08.325Z,0.00
2019-04-26T01:23:07.741Z,0.00
2019-04-26T01:24:07.897Z,0.00
2019-04-26T01:25:08.036Z,0.00
2019-04-26T01:26:08.178Z,0.00
2019-04-26T01:27:08.375Z,0.00
2019-04-26T01:28:09.540Z,0.00
2019-04-26T01:29:08.639Z,0.00
2019-04-26T01:30:09.843Z,0.00
2019-04-26T01:31:08.992Z,0.00
2019-04-26T01:32:09.161Z,0.00
2019-04-26T01:33:09.334Z,0.00
2019-04-26T01:34:10.315Z,0.00
2019-04-26T01:35:09.680Z,0.00
2019-04-26T01:36:13.256Z,0.00
2019-04-26T01:37:11.049Z,0.00
2019-04-26T01:38:10.133Z,0.00
2019-04-26T01:39:10.261Z,0.00
2019-04-26T01:40:10.498Z,0.00
2019-04-26T01:41:10.635Z,0.00
2019-04-26T01:42:10.771Z,0.00
2019-04-26T01:43:10.891Z,0.00
2019-04-26T01:44:11.034Z,0.00
2019-04-26T01:45:11.156Z,0.00
2019-04-26T01:46:11.294Z,0.00
2019-04-26T01:47:11.427Z,0.00
2019-04-26T01:48:11.567Z,0.00
2019-04-26T01:49:11.727Z,0.00
2019-04-26T01:50:11.845Z,0.00
2019-04-26T01:51:11.981Z,0.00
2019-04-26T01:52:12.245Z,0.00
2019-04-26T01:53:12.367Z,0.00
2019-04-26T01:54:12.489Z,0.00
2019-04-26T01:55:13.333Z,0.00
2019-04-26T01:56:12.832Z,0.00
2019-04-26T01:57:12.963Z,0.00
2019-04-26T01:58:13.217Z,0.00
2019-04-26T01:59:13.344Z,0.00
2019-04-26T02:00:13.495Z,0.00
2019-04-26T02:01:13.636Z,0.00
2019-04-26T02:02:13.769Z,0.00
2019-04-26T02:03:14.007Z,0.00
2019-04-26T02:04:14.147Z,0.00
2019-04-26T02:05:14.308Z,0.00
2019-04-26T02:06:24.899Z,0.00
2019-04-26T02:07:16.682Z,0.00
2019-04-26T02:08:14.909Z,0.00
2019-04-26T02:09:15.058Z,0.00
2019-04-26T02:10:15.237Z,0.00
2019-04-26T02:11:15.458Z,0.00
2019-04-26T02:12:15.610Z,0.00
2019-04-26T02:13:15.794Z,0.00
2019-04-26T02:14:15.991Z,0.00
2019-04-26T02:15:16.198Z,0.00
2019-04-26T02:16:17.328Z,0.00
2019-04-26T02:17:16.465Z,0.00
2019-04-26T02:18:16.647Z,0.00
2019-04-26T02:19:16.819Z,0.00
2019-04-26T02:20:16.992Z,0.00
2019-04-26T02:21:17.147Z,0.00
2019-04-26T02:22:17.336Z,0.00
2019-04-26T02:23:17.509Z,0.00
2019-04-26T02:24:17.679Z,0.00
2019-04-26T02:25:17.852Z,0.00
2019-04-26T02:26:18.051Z,0.00
2019-04-26T02:27:18.823Z,0.00
2019-04-26T02:28:19.335Z,0.00
2019-04-26T02:29:19.329Z,0.00
2019-04-26T02:30:18.733Z,0.00
2019-04-26T02:31:18.912Z,0.00
2019-04-26T02:32:19.070Z,0.00
2019-04-26T02:33:19.207Z,0.00
2019-04-26T02:34:19.835Z,0.00
2019-04-26T02:35:19.613Z,0.00
2019-04-26T02:36:19.755Z,0.00
2019-04-26T02:37:19.926Z,0.00
2019-04-26T02:38:20.097Z,0.00
2019-04-26T02:39:20.279Z,0.00
2019-04-26T02:40:20.438Z,0.00
2019-04-26T02:41:20.586Z,0.00
2019-04-26T02:42:21.328Z,0.00
2019-04-26T02:43:21.835Z,0.00
2019-04-26T02:44:22.072Z,0.00
2019-04-26T02:45:22.216Z,0.00
2019-04-26T02:46:21.434Z,0.00
2019-04-26T02:47:21.598Z,0.00
2019-04-26T02:48:22.403Z,0.00
2019-04-26T02:49:22.922Z,0.00
2019-04-26T02:50:22.840Z,0.00
2019-04-26T02:51:22.850Z,0.00
2019-04-26T02:52:23.574Z,0.00
2019-04-26T02:53:23.357Z,0.00
2019-04-26T02:54:23.861Z,0.00
2019-04-26T02:55:23.100Z,0.00
2019-04-26T02:56:23.317Z,0.00
2019-04-26T02:57:24.336Z,0.00
2019-04-26T02:58:23.700Z,0.00
2019-04-26T02:59:24.881Z,0.00
2019-04-26T03:00:24.859Z,0.00
2019-04-26T03:01:24.362Z,0.00
2019-04-26T03:02:24.283Z,0.00
2019-04-26T03:03:25.398Z,0.00
2019-04-26T03:04:24.691Z,0.00
2019-04-26T03:05:25.369Z,0.00
2019-04-26T03:06:25.856Z,0.00
2019-04-26T03:07:25.268Z,0.00
2019-04-26T03:08:25.434Z,0.00
2019-04-26T03:09:25.607Z,0.00
2019-04-26T03:10:25.783Z,0.00
2019-04-26T03:11:25.977Z,0.00
2019-04-26T03:12:26.191Z,0.00
2019-04-26T03:13:26.367Z,0.00
2019-04-26T03:14:26.539Z,0.00
2019-04-26T03:15:26.718Z,0.00
2019-04-26T03:16:26.876Z,0.00
2019-04-26T03:17:27.072Z,0.00
2019-04-26T03:18:27.268Z,0.00
2019-04-26T03:19:27.441Z,0.00
2019-04-26T03:20:27.595Z,0.00
2019-04-26T03:21:27.774Z,0.00
2019-04-26T03:22:27.945Z,0.00
2019-04-26T03:23:41.495Z,0.00
2019-04-26T03:24:31.070Z,0.00
2019-04-26T03:25:28.392Z,0.00
2019-04-26T03:26:28.537Z,0.00
2019-04-26T03:27:28.685Z,0.00
2019-04-26T03:28:28.800Z,0.00
2019-04-26T03:29:29.068Z,0.00
2019-04-26T03:30:29.188Z,0.00
2019-04-26T03:31:33.942Z,0.00
2019-04-26T03:32:33.796Z,0.00
2019-04-26T03:33:36.181Z,0.00
2019-04-26T03:34:36.306Z,0.00
2019-04-26T03:35:36.927Z,0.00
2019-04-26T03:36:33.916Z,0.00
2019-04-26T03:37:32.583Z,0.00
2019-04-26T03:38:30.778Z,0.00
2019-04-26T03:39:34.251Z,0.00
2019-04-26T03:40:32.569Z,0.00
2019-04-26T03:41:34.356Z,0.00
2019-04-26T03:42:34.327Z,0.00
2019-04-26T03:43:34.380Z,0.00
2019-04-26T03:44:33.039Z,0.00
2019-04-26T03:45:32.996Z,0.00
2019-04-26T03:46:34.948Z,0.00
2019-04-26T03:47:37.657Z,0.00
2019-04-26T03:48:35.900Z,0.00
2019-04-26T03:49:35.718Z,0.00
2019-04-26T03:50:35.275Z,0.00
2019-04-26T03:51:33.832Z,0.00
2019-04-26T03:52:35.291Z,0.00
2019-04-26T03:53:35.535Z,0.00
2019-04-26T03:54:34.071Z,0.00
2019-04-26T03:55:36.381Z,0.00
2019-04-26T03:56:36.096Z,0.00
2019-04-26T03:57:36.928Z,0.00
2019-04-26T03:58:35.909Z,0.00
2019-04-26T03:59:36.766Z,0.00
2019-04-26T04:00:37.352Z,0.00
2019-04-26T04:01:36.682Z,0.00
2019-04-26T04:02:38.729Z,0.00
2019-04-26T04:03:39.302Z,0.00
2019-04-26T04:04:37.710Z,0.00
2019-04-26T04:05:37.869Z,0.00
2019-04-26T04:06:56.665Z,0.00
2019-04-26T04:07:45.181Z,0.00
2019-04-26T04:08:39.811Z,0.00
2019-04-26T04:09:38.043Z,0.00
2019-04-26T04:10:39.307Z,0.00
2019-04-26T04:11:38.635Z,0.00
2019-04-26T04:12:39.734Z,0.00
2019-04-26T04:13:40.702Z,0.00
2019-04-26T04:14:40.668Z,0.00
2019-04-26T04:15:40.433Z,0.00
2019-04-26T04:16:40.629Z,0.00
2019-04-26T04:17:39.637Z,0.00
2019-04-26T04:18:41.538Z,0.00
2019-04-26T04:19:40.911Z,0.00
2019-04-26T04:20:40.826Z,0.00
2019-04-26T04:21:40.391Z,0.00
2019-04-26T04:22:41.752Z,0.00
2019-04-26T04:23:39.798Z,0.00
2019-04-26T04:24:42.678Z,0.00
2019-04-26T04:25:42.418Z,0.00
2019-04-26T04:26:42.685Z,0.00
2019-04-26T04:27:41.965Z,0.00
2019-04-26T04:28:42.468Z,0.00
2019-04-26T04:29:48.522Z,0.00
2019-04-26T04:30:44.016Z,0.00
2019-04-26T04:31:43.252Z,0.00
2019-04-26T04:32:42.419Z,0.00
2019-04-26T04:33:43.620Z,0.00
2019-04-26T04:34:44.017Z,5.62
2019-04-26T04:35:43.829Z,5.62
2019-04-26T04:37:03.750Z,5.62
2019-04-26T04:38:02.531Z,5.62
2019-04-26T04:38:44.012Z,5.62
2019-04-26T04:39:44.309Z,5.62
2019-04-26T04:40:42.669Z,5.62
2019-04-26T04:41:43.034Z,5.62
2019-04-26T04:42:43.759Z,5.62
2019-04-26T04:43:47.365Z,5.62
2019-04-26T04:44:44.910Z,5.62
2019-04-26T04:45:46.283Z,11.25
2019-04-26T04:46:45.354Z,11.25
2019-04-26T04:47:46.127Z,11.25
2019-04-26T04:48:45.067Z,11.25
2019-04-26T04:49:46.524Z,11.25
2019-04-26T04:50:46.543Z,11.25
2019-04-26T04:51:46.858Z,16.88
2019-04-26T04:52:45.028Z,16.88
2019-04-26T04:53:46.508Z,16.88
2019-04-26T04:54:50.316Z,16.88
2019-04-26T04:55:46.277Z,16.88
2019-04-26T04:56:45.697Z,16.88
2019-04-26T04:57:45.918Z,16.88
2019-04-26T04:58:46.363Z,16.88
2019-04-26T04:59:46.100Z,16.88
2019-04-26T05:00:45.807Z,16.88
2019-04-26T05:01:46.275Z,16.88
2019-04-26T05:02:46.676Z,16.88
2019-04-26T05:03:46.924Z,16.88
2019-04-26T05:04:47.361Z,16.88
2019-04-26T05:05:46.972Z,16.88
2019-04-26T05:06:47.000Z,16.88
2019-04-26T05:07:48.043Z,16.88
2019-04-26T05:08:49.686Z,16.88
2019-04-26T05:09:49.489Z,16.88
2019-04-26T05:10:47.653Z,16.88
2019-04-26T05:11:47.827Z,16.88
2019-04-26T05:12:48.000Z,16.88
2019-04-26T05:13:48.202Z,16.88
2019-04-26T05:14:48.375Z,16.88
2019-04-26T05:15:48.512Z,16.88
2019-04-26T05:16:48.653Z,16.88
2019-04-26T05:17:49.549Z,16.88
2019-04-26T05:18:49.059Z,22.50
2019-04-26T05:19:49.205Z,22.50
2019-04-26T05:20:49.346Z,22.50
2019-04-26T05:21:50.922Z,22.50
2019-04-26T05:22:49.660Z,28.12
2019-04-26T05:23:50.988Z,28.12
2019-04-26T05:24:51.256Z,33.75
2019-04-26T05:25:50.156Z,28.12
2019-04-26T05:26:51.455Z,28.12
2019-04-26T05:27:50.885Z,28.12
2019-04-26T05:28:51.660Z,28.12
2019-04-26T05:29:52.035Z,28.12
2019-04-26T05:30:51.999Z,28.12
2019-04-26T05:31:52.374Z,28.12
2019-04-26T05:32:52.705Z,28.12
2019-04-26T05:33:52.461Z,28.12
2019-04-26T05:34:52.767Z,33.75
2019-04-26T05:35:52.930Z,39.38
2019-04-26T05:36:52.730Z,39.38
2019-04-26T05:37:53.178Z,45.00
2019-04-26T05:38:53.353Z,45.00
2019-04-26T05:39:53.251Z,50.62
2019-04-26T05:40:53.520Z,50.62
2019-04-26T05:41:53.600Z,50.62
2019-04-26T05:42:53.865Z,50.62
2019-04-26T05:43:53.934Z,45.00
2019-04-26T05:44:54.728Z,39.38
2019-04-26T05:45:53.935Z,33.75
2019-04-26T05:46:53.838Z,33.75
2019-04-26T05:48:05.192Z,28.12
2019-04-26T05:48:57.894Z,28.12
2019-04-26T05:49:54.342Z,28.12
2019-04-26T05:50:54.493Z,28.12
2019-04-26T05:51:55.691Z,28.12
2019-04-26T05:52:55.235Z,28.12
2019-04-26T05:53:55.155Z,28.12
2019-04-26T05:54:56.155Z,28.12
2019-04-26T05:55:56.046Z,28.12
2019-04-26T05:56:56.268Z,28.12
2019-04-26T05:57:56.382Z,28.12
2019-04-26T05:58:58.409Z,33.75
2019-04-26T05:59:56.738Z,39.38
2019-04-26T06:00:56.164Z,39.38
2019-04-26T06:01:56.862Z,39.38
2019-04-26T06:02:56.816Z,39.38
2019-04-26T06:03:56.625Z,39.38
2019-04-26T06:04:57.189Z,45.00
2019-04-26T06:05:57.007Z,45.00
2019-04-26T06:06:57.278Z,50.62
2019-04-26T06:07:58.442Z,56.25
2019-04-26T06:08:57.500Z,56.25
2019-04-26T06:09:58.578Z,61.88
2019-04-26T06:10:57.882Z,67.50
2019-04-26T06:11:58.922Z,73.12
2019-04-26T06:12:58.773Z,73.12
2019-04-26T06:13:58.214Z,78.75
2019-04-26T06:14:58.885Z,84.38
2019-04-26T06:15:58.492Z,95.62
2019-04-26T06:16:59.235Z,106.88
2019-04-26T06:17:59.736Z,118.12
2019-04-26T06:18:59.710Z,123.75
2019-04-26T06:19:59.442Z,118.12
2019-04-26T06:20:59.790Z,118.12
2019-04-26T06:22:00.054Z,112.50
2019-04-26T06:23:00.721Z,106.88
2019-04-26T06:24:00.066Z,106.88
2019-04-26T06:25:00.449Z,106.88
2019-04-26T06:26:01.441Z,112.50
2019-04-26T06:27:11.018Z,118.12
2019-04-26T06:28:02.807Z,118.12
2019-04-26T06:29:01.141Z,118.12
2019-04-26T06:30:22.050Z,118.12
2019-04-26T06:31:01.415Z,123.75
2019-04-26T06:32:02.535Z,123.75
2019-04-26T06:33:04.745Z,123.75
2019-04-26T06:34:03.066Z,123.75
2019-04-26T06:35:03.512Z,123.75
2019-04-26T06:36:02.092Z,129.38
2019-04-26T06:37:02.380Z,129.38
2019-04-26T06:38:02.386Z,135.00
2019-04-26T06:39:02.534Z,129.38
2019-04-26T06:40:02.668Z,123.75
2019-04-26T06:41:04.351Z,118.12
2019-04-26T06:42:02.997Z,118.12
2019-04-26T06:43:03.157Z,112.50
2019-04-26T06:44:03.287Z,106.88
2019-04-26T06:45:04.654Z,95.62
2019-04-26T06:46:04.638Z,84.38
2019-04-26T06:47:03.970Z,78.75
2019-04-26T06:48:03.994Z,73.12
2019-04-26T06:49:05.481Z,67.50
2019-04-26T06:50:05.484Z,67.50
2019-04-26T06:51:04.903Z,67.50
2019-04-26T06:52:05.083Z,73.12
2019-04-26T06:53:04.775Z,78.75
2019-04-26T06:54:05.573Z,84.38
2019-04-26T06:55:05.104Z,90.00
2019-04-26T06:56:05.857Z,95.62
2019-04-26T06:57:10.652Z,101.25
2019-04-26T06:58:07.550Z,112.50
2019-04-26T06:59:05.879Z,123.75
2019-04-26T07:00:06.664Z,129.38
2019-04-26T07:01:06.108Z,140.62
2019-04-26T07:02:06.236Z,151.88
2019-04-26T07:03:06.374Z,151.88
2019-04-26T07:04:06.523Z,157.50
2019-04-26T07:05:06.987Z,157.50
2019-04-26T07:06:06.877Z,163.12
2019-04-26T07:07:07.497Z,163.12
2019-04-26T07:08:07.249Z,163.12
2019-04-26T07:09:07.330Z,157.50
2019-04-26T07:10:07.485Z,146.25
2019-04-26T07:11:07.680Z,140.62
2019-04-26T07:12:08.387Z,129.38
2019-04-26T07:13:08.019Z,118.12
2019-04-26T07:14:08.188Z,118.12
2019-04-26T07:15:08.345Z,106.88
2019-04-26T07:16:21.685Z,101.25
2019-04-26T07:17:10.621Z,101.25
2019-04-26T07:18:08.842Z,101.25
2019-04-26T07:19:08.988Z,101.25
2019-04-26T07:20:09.141Z,112.50
2019-04-26T07:21:09.309Z,112.50
2019-04-26T07:22:09.484Z,118.12
2019-04-26T07:23:09.631Z,118.12
2019-04-26T07:24:09.770Z,123.75
2019-04-26T07:25:11.063Z,135.00
2019-04-26T07:26:10.075Z,140.62
2019-04-26T07:27:11.034Z,140.62
2019-04-26T07:28:12.242Z,140.62
2019-04-26T07:29:11.532Z,140.62
2019-04-26T07:30:10.786Z,140.62
2019-04-26T07:31:10.968Z,135.00
2019-04-26T07:32:11.562Z,129.38
2019-04-26T07:33:12.563Z,129.38
2019-04-26T07:34:11.550Z,123.75
2019-04-26T07:35:12.805Z,123.75
2019-04-26T07:36:12.072Z,123.75
2019-04-26T07:37:12.970Z,129.38
2019-04-26T07:38:12.233Z,129.38
2019-04-26T07:39:19.506Z,135.00
2019-04-26T07:40:14.517Z,135.00
2019-04-26T07:41:12.731Z,135.00
2019-04-26T07:42:12.896Z,140.62
2019-04-26T07:43:13.086Z,140.62
2019-04-26T07:44:13.232Z,146.25
2019-04-26T07:45:13.404Z,146.25
2019-04-26T07:46:13.587Z,146.25
2019-04-26T07:47:15.457Z,146.25
2019-04-26T07:48:14.617Z,146.25
2019-04-26T07:49:14.085Z,140.62
2019-04-26T07:50:14.262Z,135.00
2019-04-26T07:51:14.427Z,129.38
2019-04-26T07:52:14.605Z,118.12
2019-04-26T07:53:14.790Z,118.12
2019-04-26T07:54:14.970Z,112.50
2019-04-26T07:55:15.868Z,112.50
2019-04-26T07:56:15.367Z,112.50
2019-04-26T07:57:15.542Z,106.88
2019-04-26T07:58:15.677Z,106.88
2019-04-26T07:59:15.828Z,112.50
2019-04-26T08:00:16.028Z,112.50
2019-04-26T08:01:16.212Z,112.50
2019-04-26T08:02:16.394Z,118.12
2019-04-26T08:03:17.380Z,118.12
2019-04-26T08:04:16.742Z,112.50
2019-04-26T08:05:16.875Z,106.88
2019-04-26T08:06:17.031Z,106.88
2019-04-26T08:07:17.191Z,118.12
2019-04-26T08:08:17.372Z,135.00
2019-04-26T08:09:26.931Z,140.62
2019-04-26T08:10:19.691Z,140.62
2019-04-26T08:11:18.879Z,135.00
2019-04-26T08:12:18.082Z,157.50
2019-04-26T08:13:18.346Z,168.75
2019-04-26T08:14:18.469Z,202.50
2019-04-26T08:15:18.705Z,230.62
2019-04-26T08:16:18.844Z,225.00
2019-04-26T08:17:18.989Z,219.38
2019-04-26T08:18:19.143Z,202.50
2019-04-26T08:19:19.274Z,241.88
2019-04-26T08:20:19.399Z,258.75
2019-04-26T08:21:19.892Z,253.12
2019-04-26T08:22:23.051Z,253.12
2019-04-26T08:23:38.622Z,230.62
2019-04-26T08:24:22.068Z,202.50
2019-04-26T08:25:20.870Z,185.62
2019-04-26T08:26:20.902Z,174.38
2019-04-26T08:27:23.552Z,174.38
2019-04-26T08:28:21.839Z,168.75
2019-04-26T08:29:21.011Z,168.75
2019-04-26T08:30:22.679Z,191.25
2019-04-26T08:31:24.290Z,213.75
2019-04-26T08:32:22.426Z,213.75
2019-04-26T08:33:21.579Z,208.12
2019-04-26T08:34:28.520Z,208.12
2019-04-26T08:35:23.938Z,225.00
2019-04-26T08:36:23.238Z,219.38
2019-04-26T08:37:23.324Z,191.25
2019-04-26T08:38:22.872Z,191.25
2019-04-26T08:39:29.728Z,202.50
2019-04-26T08:40:30.767Z,219.38
2019-04-26T08:41:25.101Z,241.88
2019-04-26T08:42:25.047Z,264.38
2019-04-26T08:43:27.392Z,275.62
2019-04-26T08:44:25.377Z,292.50
2019-04-26T08:45:24.052Z,309.38
2019-04-26T08:46:24.227Z,292.50
2019-04-26T08:47:26.433Z,275.62
2019-04-26T08:48:27.613Z,270.00
2019-04-26T08:49:25.811Z,264.38
2019-04-26T08:50:24.916Z,275.62
2019-04-26T08:51:25.059Z,264.38
2019-04-26T08:52:25.214Z,247.50
2019-04-26T08:53:25.376Z,247.50
2019-04-26T08:54:25.561Z,247.50
2019-04-26T08:55:25.797Z,253.12
2019-04-26T08:56:25.951Z,253.12
2019-04-26T08:57:26.126Z,270.00
2019-04-26T08:58:26.291Z,281.25
2019-04-26T08:59:26.470Z,292.50
2019-04-26T09:00:26.653Z,320.62
2019-04-26T09:01:26.820Z,326.25
2019-04-26T09:02:26.984Z,320.62
2019-04-26T09:03:27.173Z,320.62
2019-04-26T09:04:27.321Z,326.25
2019-04-26T09:05:27.526Z,320.62
2019-04-26T09:06:27.710Z,320.62
2019-04-26T09:07:27.897Z,320.62
2019-04-26T09:08:28.086Z,320.62
2019-04-26T09:09:28.274Z,326.25
2019-04-26T09:10:28.479Z,320.62
2019-04-26T09:11:33.420Z,315.00
2019-04-26T09:12:29.823Z,309.38
2019-04-26T09:13:28.989Z,292.50
2019-04-26T09:14:29.176Z,270.00
2019-04-26T09:15:29.340Z,241.88
2019-04-26T09:16:29.500Z,241.88
2019-04-26T09:17:32.169Z,253.12
2019-04-26T09:18:42.361Z,247.50
2019-04-26T09:19:32.264Z,219.38
2019-04-26T09:20:30.264Z,202.50
2019-04-26T09:21:30.432Z,213.75
2019-04-26T09:22:30.599Z,225.00
2019-04-26T09:23:39.844Z,230.62
2019-04-26T09:24:32.959Z,230.62
2019-04-26T09:25:34.503Z,225.00
2019-04-26T09:26:32.395Z,219.38
2019-04-26T09:27:31.492Z,236.25
2019-04-26T09:28:31.625Z,247.50
2019-04-26T09:29:32.178Z,258.75
2019-04-26T09:30:34.679Z,270.00
2019-04-26T09:31:32.134Z,286.88
2019-04-26T09:32:32.300Z,298.12
2019-04-26T09:33:36.080Z,303.75
2019-04-26T09:34:32.646Z,309.38
2019-04-26T09:35:32.778Z,320.62
2019-04-26T09:36:33.883Z,331.88
2019-04-26T09:37:33.113Z,331.88
2019-04-26T09:38:33.327Z,309.38
2019-04-26T09:39:33.490Z,281.25
2019-04-26T09:40:34.695Z,253.12
2019-04-26T09:41:34.383Z,230.62
2019-04-26T09:42:39.417Z,202.50
2019-04-26T09:43:35.263Z,168.75
2019-04-26T09:44:37.632Z,140.62
2019-04-26T09:45:35.593Z,129.38
2019-04-26T09:46:34.726Z,123.75
2019-04-26T09:47:34.877Z,123.75
2019-04-26T09:48:36.725Z,118.12
2019-04-26T09:49:37.332Z,123.75
2019-04-26T09:50:36.480Z,129.38
2019-04-26T09:51:39.175Z,146.25
2019-04-26T09:52:35.827Z,174.38
2019-04-26T09:53:36.022Z,208.12
2019-04-26T09:54:36.188Z,236.25
2019-04-26T09:55:37.389Z,253.12
2019-04-26T09:56:36.549Z,247.50
2019-04-26T09:57:37.394Z,241.88
2019-04-26T09:58:36.906Z,236.25
2019-04-26T09:59:39.961Z,241.88
2019-04-26T10:00:37.321Z,264.38
2019-04-26T10:01:37.519Z,298.12
2019-04-26T10:02:38.397Z,343.12
2019-04-26T10:03:38.888Z,399.38
2019-04-26T10:04:38.895Z,444.38
2019-04-26T10:05:38.292Z,466.88
2019-04-26T10:06:38.457Z,466.88
2019-04-26T10:07:38.962Z,455.62
2019-04-26T10:08:38.761Z,438.75
2019-04-26T10:09:39.894Z,405.00
2019-04-26T10:10:39.108Z,371.25
2019-04-26T10:11:39.532Z,354.38
2019-04-26T10:12:40.403Z,331.88
2019-04-26T10:13:39.630Z,315.00
2019-04-26T10:14:39.759Z,303.75
2019-04-26T10:15:40.389Z,298.12
2019-04-26T10:16:42.175Z,292.50
2019-04-26T10:17:41.261Z,286.88
2019-04-26T10:18:40.381Z,275.62
2019-04-26T10:19:40.518Z,275.62
2019-04-26T10:20:40.655Z,281.25
2019-04-26T10:21:40.809Z,292.50
2019-04-26T10:22:40.977Z,303.75
2019-04-26T10:23:41.083Z,309.38
2019-04-26T10:24:41.894Z,320.62
2019-04-26T10:25:41.511Z,320.62
2019-04-26T10:26:41.639Z,315.00
2019-04-26T10:27:42.556Z,303.75
2019-04-26T10:28:42.009Z,281.25
2019-04-26T10:29:42.156Z,264.38
2019-04-26T10:30:43.743Z,253.12
2019-04-26T10:31:43.451Z,241.88
2019-04-26T10:32:42.561Z,213.75
2019-04-26T10:33:42.710Z,196.88
2019-04-26T10:34:47.220Z,185.62
2019-04-26T10:35:43.981Z,174.38
2019-04-26T10:36:43.102Z,163.12
2019-04-26T10:37:44.011Z,157.50
2019-04-26T10:38:44.490Z,180.00
2019-04-26T10:39:44.398Z,219.38
2019-04-26T10:40:43.776Z,247.50
2019-04-26T10:41:43.936Z,281.25
2019-04-26T10:42:44.089Z,298.12
2019-04-26T10:43:44.275Z,303.75
2019-04-26T10:44:44.479Z,298.12
2019-04-26T10:45:45.956Z,286.88
2019-04-26T10:46:55.370Z,275.62
2019-04-26T10:47:46.991Z,270.00
2019-04-26T10:48:45.488Z,281.25
2019-04-26T10:49:46.311Z,303.75
2019-04-26T10:50:46.402Z,315.00
2019-04-26T10:51:45.634Z,320.62
2019-04-26T10:52:53.306Z,315.00
2019-04-26T10:53:50.433Z,315.00
2019-04-26T10:55:07.143Z,315.00
2019-04-26T10:55:50.193Z,315.00
2019-04-26T10:56:46.481Z,320.62
2019-04-26T10:57:46.640Z,326.25
2019-04-26T10:58:46.787Z,337.50
2019-04-26T10:59:46.985Z,354.38
2019-04-26T11:00:48.463Z,371.25
2019-04-26T11:01:49.260Z,399.38
2019-04-26T11:02:48.399Z,427.50
2019-04-26T11:03:47.657Z,455.62
2019-04-26T11:04:47.816Z,483.75
2019-04-26T11:05:49.359Z,511.88
2019-04-26T11:06:50.077Z,534.38
2019-04-26T11:07:48.909Z,551.25
2019-04-26T11:08:48.420Z,568.12
2019-04-26T11:09:48.593Z,568.12
2019-04-26T11:10:49.401Z,579.38
2019-04-26T11:11:48.912Z,579.38
2019-04-26T11:12:49.049Z,585.00
2019-04-26T11:13:49.200Z,590.62
2019-04-26T11:14:49.420Z,601.88
2019-04-26T11:15:49.459Z,613.12
2019-04-26T11:16:49.931Z,624.38
2019-04-26T11:17:50.124Z,691.88
2019-04-26T11:18:51.041Z,849.38
2019-04-26T11:19:50.229Z,883.12
2019-04-26T11:20:50.374Z,900.00
2019-04-26T11:21:51.074Z,832.50
2019-04-26T11:22:51.758Z,826.88
2019-04-26T11:23:51.059Z,776.25
2019-04-26T11:24:53.773Z,714.38
2019-04-26T11:25:52.398Z,641.25
2019-04-26T11:26:51.552Z,607.50
2019-04-26T11:27:51.738Z,585.00
2019-04-26T11:28:55.803Z,562.50
2019-04-26T11:29:53.972Z,545.62
2019-04-26T11:30:56.981Z,528.75
2019-04-26T11:31:54.175Z,528.75
2019-04-26T11:32:54.445Z,495.00
2019-04-26T11:34:04.730Z,455.62
2019-04-26T11:34:58.786Z,472.50
2019-04-26T11:35:55.951Z,472.50
2019-04-26T11:36:53.937Z,483.75
2019-04-26T11:37:55.186Z,478.12
2019-04-26T11:38:55.418Z,461.25
2019-04-26T11:39:53.936Z,466.88
2019-04-26T11:41:05.886Z,500.62
2019-04-26T11:41:56.398Z,506.25
2019-04-26T11:42:54.486Z,495.00
2019-04-26T11:43:54.716Z,461.25
2019-04-26T11:45:05.769Z,433.12
2019-04-26T11:46:04.099Z,438.75
2019-04-26T11:46:59.364Z,455.62
2019-04-26T11:47:56.740Z,438.75
2019-04-26T11:48:59.187Z,427.50
2019-04-26T11:49:56.699Z,450.00
2019-04-26T11:50:55.841Z,472.50
2019-04-26T11:51:58.572Z,495.00
2019-04-26T11:52:58.130Z,495.00
2019-04-26T11:53:56.451Z,478.12
2019-04-26T11:54:56.503Z,461.25
2019-04-26T11:56:00.157Z,416.25
2019-04-26T11:56:58.414Z,393.75
2019-04-26T11:57:56.889Z,388.12
2019-04-26T11:58:58.327Z,382.50
2019-04-26T12:00:01.449Z,376.88
2019-04-26T12:00:58.294Z,382.50
2019-04-26T12:01:57.421Z,365.62
2019-04-26T12:02:57.593Z,348.75
2019-04-26T12:03:59.406Z,348.75
2019-04-26T12:04:59.920Z,348.75
2019-04-26T12:05:58.151Z,343.12
2019-04-26T12:06:58.306Z,320.62
2019-04-26T12:07:58.455Z,298.12
2019-04-26T12:08:59.450Z,281.25
2019-04-26T12:09:58.810Z,264.38
2019-04-26T12:10:58.942Z,225.00
2019-04-26T12:12:04.706Z,219.38
2019-04-26T12:13:05.914Z,225.00
2019-04-26T12:14:00.873Z,236.25
2019-04-26T12:15:04.008Z,241.88
2019-04-26T12:16:01.420Z,241.88
2019-04-26T12:17:01.270Z,225.00
2019-04-26T12:18:01.210Z,213.75
2019-04-26T12:19:00.337Z,202.50
2019-04-26T12:20:01.434Z,208.12
2019-04-26T12:21:01.076Z,213.75
2019-04-26T12:22:04.307Z,230.62
2019-04-26T12:23:03.949Z,253.12
2019-04-26T12:24:01.165Z,275.62
2019-04-26T12:25:03.429Z,286.88
2019-04-26T12:26:03.976Z,303.75
2019-04-26T12:27:02.467Z,315.00
2019-04-26T12:28:05.555Z,320.62
2019-04-26T12:29:02.863Z,331.88
2019-04-26T12:30:02.442Z,337.50
2019-04-26T12:31:02.264Z,331.88
2019-04-26T12:32:02.429Z,331.88
2019-04-26T12:33:02.610Z,331.88
2019-04-26T12:34:03.445Z,331.88
2019-04-26T12:35:03.434Z,331.88
2019-04-26T12:36:03.440Z,326.25
2019-04-26T12:37:03.439Z,343.12
2019-04-26T12:38:04.420Z,376.88
2019-04-26T12:39:03.664Z,405.00
2019-04-26T12:40:07.239Z,421.88
2019-04-26T12:41:06.033Z,433.12
2019-04-26T12:42:08.284Z,444.38
2019-04-26T12:43:05.418Z,444.38
2019-04-26T12:44:05.425Z,438.75
2019-04-26T12:45:04.935Z,421.88
2019-04-26T12:46:04.819Z,399.38
2019-04-26T12:47:05.253Z,371.25
2019-04-26T12:48:08.077Z,365.62
2019-04-26T12:49:06.308Z,382.50
2019-04-26T12:50:05.547Z,388.12
2019-04-26T12:51:08.155Z,382.50
2019-04-26T12:52:07.913Z,376.88